createdAt,value
2023-05-15T00:00:52.708Z,24.00
2023-05-15T00:03:20.400Z,24.17
2023-05-15T00:05:48.159Z,23.95
2023-05-15T00:08:15.810Z,23.25
2023-05-15T00:10:53.977Z,23.77
2023-05-15T00:13:28.214Z,23.15
2023-05-15T00:15:55.909Z,24.33
2023-05-15T00:18:23.539Z,23.80
2023-05-15T00:20:51.245Z,23.85
2023-05-15T00:23:18.819Z,22.48
2023-05-15T00:25:46.334Z,21.80
2023-05-15T00:28:13.676Z,19.58
2023-05-15T00:30:41.154Z,19.75
2023-05-15T00:33:08.694Z,19.25
2023-05-15T00:35:37.675Z,19.75
2023-05-15T00:38:05.162Z,19.02
2023-05-15T00:40:33.985Z,18.90
2023-05-15T00:43:03.402Z,19.42
2023-05-15T00:45:31.113Z,20.10
2023-05-15T00:48:01.288Z,19.05
2023-05-15T00:50:29.820Z,19.48
2023-05-15T00:52:57.970Z,19.25
2023-05-15T00:55:26.936Z,18.45
2023-05-15T00:57:55.248Z,19.60
2023-05-15T01:00:23.106Z,19.70
2023-05-15T01:02:50.778Z,18.92
2023-05-15T01:05:18.487Z,19.10
2023-05-15T01:07:55.578Z,17.67
2023-05-15T01:10:23.616Z,17.65
2023-05-15T01:12:54.728Z,18.25
2023-05-15T01:15:22.547Z,18.05
2023-05-15T01:17:52.111Z,18.17
2023-05-15T01:20:21.453Z,18.83
2023-05-15T01:23:30.730Z,20.42
2023-05-15T01:26:32.658Z,19.42
2023-05-15T01:29:27.758Z,21.17
2023-05-15T01:31:59.281Z,21.98
2023-05-15T01:34:52.498Z,21.20
2023-05-15T01:37:25.117Z,21.05
2023-05-15T01:39:59.814Z,22.10
2023-05-15T01:42:33.816Z,21.90
2023-05-15T01:45:06.135Z,20.70
2023-05-15T01:47:45.276Z,20.83
2023-05-15T01:50:16.396Z,19.98
2023-05-15T01:52:48.696Z,20.73
2023-05-15T01:55:17.384Z,19.80
2023-05-15T01:57:47.129Z,19.75
2023-05-15T02:00:15.600Z,21.05
2023-05-15T02:02:44.764Z,21.60
2023-05-15T02:05:14.433Z,21.63
2023-05-15T02:07:44.404Z,21.98
2023-05-15T02:10:17.217Z,22.08
2023-05-15T02:12:49.776Z,22.13
2023-05-15T02:15:18.917Z,26.17
2023-05-15T02:17:47.579Z,26.27
2023-05-15T02:20:15.141Z,27.85
2023-05-15T02:22:43.671Z,31.35
2023-05-15T02:25:11.222Z,36.05
2023-05-15T02:27:43.154Z,38.78
2023-05-15T02:30:12.207Z,39.30
2023-05-15T02:32:51.771Z,38.53
2023-05-15T02:35:19.300Z,40.38
2023-05-15T02:37:50.539Z,43.55
2023-05-15T02:40:20.806Z,44.10
2023-05-15T02:42:49.864Z,45.35
2023-05-15T02:45:17.946Z,45.95
2023-05-15T02:47:46.057Z,46.30
2023-05-15T02:50:13.956Z,46.42
2023-05-15T02:52:41.416Z,46.38
2023-05-15T02:55:09.468Z,47.20
2023-05-15T02:57:37.073Z,44.90
2023-05-15T03:00:09.424Z,45.47
2023-05-15T03:02:36.987Z,44.78
2023-05-15T03:05:04.655Z,44.67
2023-05-15T03:07:32.191Z,47.03
2023-05-15T03:09:59.690Z,44.30
2023-05-15T03:12:27.198Z,43.42
2023-05-15T03:14:54.703Z,45.40
2023-05-15T03:17:22.677Z,45.95
2023-05-15T03:19:50.223Z,44.47
2023-05-15T03:22:17.861Z,49.88
2023-05-15T03:24:45.759Z,51.17
2023-05-15T03:27:13.338Z,54.28
2023-05-15T03:29:40.897Z,55.03
2023-05-15T03:32:08.425Z,55.20
2023-05-15T03:34:36.209Z,56.97
2023-05-15T03:37:03.703Z,59.38
2023-05-15T03:39:31.246Z,64.22
2023-05-15T03:41:58.811Z,67.20
2023-05-15T03:44:26.279Z,64.75
2023-05-15T03:46:53.754Z,63.88
2023-05-15T03:49:21.406Z,67.97
2023-05-15T03:51:48.912Z,68.85
2023-05-15T03:54:16.533Z,70.45
2023-05-15T03:56:44.747Z,69.05
2023-05-15T03:59:12.372Z,67.88
2023-05-15T04:01:54.735Z,70.97
2023-05-15T04:04:27.325Z,72.22
2023-05-15T04:06:54.961Z,72.00
2023-05-15T04:09:22.349Z,68.70
2023-05-15T04:11:49.836Z,68.93
2023-05-15T04:14:17.330Z,69.20
2023-05-15T04:16:44.844Z,71.38
2023-05-15T04:19:12.623Z,69.63
2023-05-15T04:21:40.188Z,69.13
2023-05-15T04:24:08.512Z,69.63
2023-05-15T04:26:36.830Z,68.78
2023-05-15T04:29:04.857Z,72.07
2023-05-15T04:31:32.990Z,71.72
2023-05-15T04:34:00.592Z,71.00
2023-05-15T04:36:28.436Z,75.35
2023-05-15T04:38:55.914Z,70.68
2023-05-15T04:41:23.301Z,67.78
2023-05-15T04:43:51.157Z,65.30
2023-05-15T04:46:18.759Z,64.00
2023-05-15T04:48:46.450Z,63.92
2023-05-15T04:51:13.905Z,63.60
2023-05-15T04:53:41.381Z,72.45
2023-05-15T04:56:08.766Z,71.60
2023-05-15T04:58:36.362Z,69.72
2023-05-15T05:01:04.372Z,68.40
2023-05-15T05:03:32.041Z,69.85
2023-05-15T05:06:00.388Z,68.72
2023-05-15T05:08:27.877Z,73.18
2023-05-15T05:10:58.404Z,72.43
2023-05-15T05:13:26.068Z,69.57
2023-05-15T05:15:53.648Z,64.45
2023-05-15T05:18:21.153Z,59.47
2023-05-15T05:20:48.701Z,62.03
2023-05-15T05:23:16.393Z,66.30
2023-05-15T05:25:43.834Z,65.40
2023-05-15T05:28:11.269Z,65.65
2023-05-15T05:30:38.773Z,61.80
2023-05-15T05:33:06.685Z,63.83
2023-05-15T05:35:34.112Z,63.72
2023-05-15T05:38:02.082Z,61.75
2023-05-15T05:40:29.486Z,63.47
2023-05-15T05:43:03.573Z,64.13
2023-05-15T05:45:31.499Z,65.85
2023-05-15T05:47:59.096Z,65.80
2023-05-15T05:50:26.630Z,76.07
2023-05-15T05:52:54.184Z,78.07
2023-05-15T05:55:21.776Z,66.90
2023-05-15T05:57:49.284Z,60.47
2023-05-15T06:00:17.284Z,60.58
2023-05-15T06:02:44.960Z,56.38
2023-05-15T06:05:12.499Z,50.53
2023-05-15T06:07:40.397Z,45.95
2023-05-15T06:10:10.038Z,46.30
2023-05-15T06:12:37.582Z,43.55
2023-05-15T06:15:05.689Z,42.63
2023-05-15T06:17:33.353Z,42.08
2023-05-15T06:20:01.040Z,42.13
2023-05-15T06:22:28.862Z,44.03
2023-05-15T06:24:56.351Z,41.75
2023-05-15T06:27:26.720Z,39.50
2023-05-15T06:29:54.207Z,39.55
2023-05-15T06:32:21.967Z,35.03
2023-05-15T06:34:49.572Z,36.67
2023-05-15T06:37:17.151Z,36.25
2023-05-15T06:39:44.610Z,34.17
2023-05-15T06:42:12.141Z,34.85
2023-05-15T06:44:41.879Z,34.72
2023-05-15T06:47:09.437Z,31.20
2023-05-15T06:49:37.184Z,29.70
2023-05-15T06:52:05.061Z,28.23
2023-05-15T06:54:32.513Z,31.42
2023-05-15T06:57:00.130Z,29.40
2023-05-15T06:59:27.688Z,28.95
2023-05-15T07:01:56.236Z,29.92
2023-05-15T07:04:23.867Z,31.90
2023-05-15T07:06:51.371Z,32.80
2023-05-15T07:09:18.826Z,31.08
2023-05-15T07:11:46.321Z,26.55
2023-05-15T07:14:13.862Z,24.38
2023-05-15T07:16:41.473Z,26.25
2023-05-15T07:19:10.016Z,26.55
2023-05-15T07:21:39.384Z,29.15
2023-05-15T07:24:07.040Z,31.80
2023-05-15T07:26:43.465Z,33.20
2023-05-15T07:29:18.014Z,34.15
2023-05-15T07:31:45.631Z,34.90
2023-05-15T07:34:13.263Z,31.10
2023-05-15T07:36:41.179Z,28.33
2023-05-15T07:39:08.669Z,30.17
2023-05-15T07:41:36.193Z,39.67
2023-05-15T07:44:03.853Z,38.92
2023-05-15T07:46:31.321Z,38.83
2023-05-15T07:48:59.254Z,38.63
2023-05-15T07:51:26.900Z,38.03
2023-05-15T07:53:54.620Z,25.08
2023-05-15T07:56:22.071Z,24.20
2023-05-15T07:58:49.588Z,24.38
2023-05-15T08:01:17.239Z,26.15
2023-05-15T08:03:44.708Z,25.52
2023-05-15T08:06:12.168Z,27.40
2023-05-15T08:08:39.706Z,28.35
2023-05-15T08:11:07.181Z,28.02
2023-05-15T08:13:34.645Z,30.65
2023-05-15T08:16:02.177Z,31.50
2023-05-15T08:18:29.686Z,32.45
2023-05-15T08:20:57.181Z,32.53
2023-05-15T08:23:24.669Z,34.17
2023-05-15T08:25:52.278Z,35.05
2023-05-15T08:28:19.756Z,33.33
2023-05-15T08:30:47.147Z,34.13
2023-05-15T08:33:14.724Z,32.47
2023-05-15T08:35:42.185Z,33.78
2023-05-15T08:38:09.822Z,31.85
2023-05-15T08:40:39.691Z,32.20
2023-05-15T08:43:15.388Z,31.60
2023-05-15T08:45:43.629Z,30.88
2023-05-15T08:48:17.990Z,30.70
2023-05-15T08:50:46.260Z,28.58
2023-05-15T08:53:15.067Z,29.08
2023-05-15T08:55:43.060Z,27.60
2023-05-15T08:58:11.216Z,26.67
2023-05-15T09:00:38.989Z,26.63
2023-05-15T09:03:06.455Z,26.00
2023-05-15T09:05:34.852Z,21.45
2023-05-15T09:08:06.551Z,19.45
2023-05-15T09:10:34.556Z,18.02
2023-05-15T09:13:02.956Z,19.33
2023-05-15T09:15:30.992Z,18.55
2023-05-15T09:17:59.149Z,17.23
2023-05-15T09:20:33.544Z,17.73
2023-05-15T09:23:03.337Z,17.83
2023-05-15T09:25:41.976Z,19.75
2023-05-15T09:28:27.073Z,19.52
2023-05-15T09:31:00.553Z,19.38
2023-05-15T09:33:32.524Z,19.92
2023-05-15T09:36:00.468Z,15.68
2023-05-15T09:38:28.255Z,14.55
2023-05-15T09:41:04.394Z,14.60
2023-05-15T09:43:37.273Z,14.68
2023-05-15T09:46:06.314Z,14.65
2023-05-15T09:48:35.447Z,15.10
2023-05-15T09:51:03.160Z,14.27
2023-05-15T09:53:32.082Z,14.15
2023-05-15T09:55:59.609Z,8.52
2023-05-15T09:58:27.181Z,8.63
2023-05-15T10:00:54.700Z,8.00
2023-05-15T10:03:22.193Z,7.72
2023-05-15T10:05:49.861Z,6.78
2023-05-15T10:08:28.599Z,6.90
2023-05-15T10:11:00.777Z,6.72
2023-05-15T10:13:32.211Z,7.38
2023-05-15T10:16:03.818Z,8.43
2023-05-15T10:18:34.380Z,7.90
2023-05-15T10:21:04.622Z,7.45
2023-05-15T10:23:34.579Z,7.13
2023-05-15T10:26:07.156Z,6.55
2023-05-15T10:28:36.673Z,6.60
2023-05-15T10:31:06.268Z,6.40
2023-05-15T10:33:36.373Z,6.35
2023-05-15T10:36:04.900Z,6.50
2023-05-15T10:38:33.432Z,5.93
2023-05-15T10:41:15.806Z,5.57
2023-05-15T10:43:44.773Z,5.50
2023-05-15T10:46:12.534Z,5.68
2023-05-15T10:48:40.831Z,5.43
2023-05-15T10:51:18.937Z,5.20
2023-05-15T10:53:46.923Z,4.60
2023-05-15T10:56:16.922Z,4.30
2023-05-15T10:58:48.857Z,4.57
2023-05-15T11:01:33.298Z,3.83
2023-05-15T11:04:23.152Z,4.43
2023-05-15T11:07:11.218Z,4.05
2023-05-15T11:09:39.951Z,4.68
2023-05-15T11:12:12.109Z,3.88
2023-05-15T11:15:00.831Z,3.97
2023-05-15T11:17:34.354Z,3.50
2023-05-15T11:20:02.104Z,3.58
2023-05-15T11:22:39.135Z,3.63
2023-05-15T11:25:12.689Z,3.83
2023-05-15T11:27:45.007Z,3.70
2023-05-15T11:30:12.656Z,3.58
2023-05-15T11:32:52.092Z,3.13
2023-05-15T11:35:48.109Z,2.97
2023-05-15T11:38:18.333Z,3.22
2023-05-15T11:40:50.124Z,3.00
2023-05-15T11:43:24.908Z,3.28
2023-05-15T11:46:13.013Z,2.40
2023-05-15T11:48:42.177Z,2.80
2023-05-15T11:51:26.249Z,3.25
2023-05-15T11:53:55.788Z,3.50
2023-05-15T11:56:31.092Z,2.80
2023-05-15T11:59:00.642Z,3.17
2023-05-15T12:01:30.200Z,7.00
2023-05-15T12:03:57.787Z,3.50
2023-05-15T12:06:26.527Z,3.97
2023-05-15T12:08:54.332Z,2.30
2023-05-15T12:11:25.465Z,2.20
2023-05-15T12:13:56.852Z,2.60
2023-05-15T12:16:28.084Z,2.30
2023-05-15T12:18:57.906Z,2.30
2023-05-15T12:21:28.287Z,2.10
2023-05-15T12:26:29.386Z,2.70
2023-05-15T12:28:57.064Z,1.83
2023-05-15T12:31:25.024Z,1.92
2023-05-15T12:33:52.670Z,1.90
2023-05-15T12:36:23.375Z,3.05
2023-05-15T12:38:50.976Z,2.88
2023-05-15T12:41:20.575Z,1.75
2023-05-15T12:43:49.061Z,2.00
2023-05-15T12:46:16.547Z,2.47
2023-05-15T12:48:44.444Z,2.33
2023-05-15T12:51:11.988Z,1.40
2023-05-15T12:53:42.515Z,1.77
2023-05-15T12:56:10.279Z,1.75
2023-05-15T12:58:38.503Z,2.17
2023-05-15T13:01:06.523Z,3.15
2023-05-15T13:03:34.851Z,1.60
2023-05-15T13:06:07.420Z,1.25
2023-05-15T13:08:42.774Z,1.60
2023-05-15T13:11:14.692Z,1.20
2023-05-15T13:13:44.410Z,1.45
2023-05-15T13:16:19.899Z,1.05
2023-05-15T13:18:47.639Z,1.15
2023-05-15T13:21:15.445Z,1.25
2023-05-15T13:23:42.964Z,2.38
2023-05-15T13:26:10.734Z,2.17
2023-05-15T13:28:38.208Z,1.27
2023-05-15T13:31:06.180Z,1.40
2023-05-15T13:33:35.994Z,1.50
2023-05-15T13:36:03.568Z,1.05
2023-05-15T13:38:31.459Z,0.98
2023-05-15T13:40:58.970Z,0.90
2023-05-15T13:43:26.941Z,1.00
2023-05-15T13:45:55.064Z,1.17
2023-05-15T13:48:22.952Z,0.90
2023-05-15T13:50:50.367Z,1.25
2023-05-15T13:53:17.814Z,1.75
2023-05-15T13:55:46.609Z,2.00
2023-05-15T13:58:14.597Z,1.75
2023-05-15T14:00:44.202Z,1.52
2023-05-15T14:03:14.799Z,1.40
2023-05-15T14:05:42.828Z,1.05
2023-05-15T14:08:10.644Z,1.08
2023-05-15T14:10:38.257Z,0.98
2023-05-15T14:13:06.104Z,1.67
2023-05-15T14:15:33.582Z,1.10
2023-05-15T14:18:01.327Z,2.17
2023-05-15T14:20:28.870Z,1.30
2023-05-15T14:22:56.535Z,1.23
2023-05-15T14:25:24.690Z,1.23
2023-05-15T14:27:52.329Z,1.05
2023-05-15T14:30:19.935Z,1.42
2023-05-15T14:32:47.659Z,1.85
2023-05-15T14:35:15.536Z,1.45
2023-05-15T14:37:43.695Z,0.75
2023-05-15T14:40:11.676Z,0.90
2023-05-15T14:42:39.260Z,1.20
2023-05-15T14:45:07.149Z,1.30
2023-05-15T14:47:34.775Z,1.20
2023-05-15T14:50:02.331Z,1.65
2023-05-15T14:52:31.080Z,1.20
2023-05-15T14:55:08.518Z,1.40
2023-05-15T14:57:38.416Z,1.30
2023-05-15T15:00:08.505Z,1.05
2023-05-15T15:02:36.175Z,0.85
2023-05-15T15:05:04.913Z,1.08
2023-05-15T15:08:02.348Z,1.13
2023-05-15T15:10:30.291Z,1.10
2023-05-15T15:12:59.557Z,1.52
2023-05-15T15:15:27.854Z,1.30
2023-05-15T15:17:57.779Z,1.20
2023-05-15T15:20:27.245Z,1.88
2023-05-15T15:22:55.516Z,1.67
2023-05-15T15:25:26.058Z,1.40
2023-05-15T15:27:54.632Z,1.30
2023-05-15T15:30:22.133Z,1.80
2023-05-15T15:32:49.772Z,1.35
2023-05-15T15:35:17.401Z,1.20
2023-05-15T15:37:44.907Z,1.40
2023-05-15T15:40:12.642Z,1.27
2023-05-15T15:42:40.144Z,1.25
2023-05-15T15:45:08.014Z,1.40
2023-05-15T15:47:35.577Z,1.45
2023-05-15T15:50:03.191Z,1.40
2023-05-15T15:52:31.125Z,1.40
2023-05-15T15:54:58.565Z,1.30
2023-05-15T15:57:28.142Z,1.40
2023-05-15T15:59:55.688Z,1.40
2023-05-15T16:02:23.222Z,1.30
2023-05-15T16:04:50.976Z,1.52
2023-05-15T16:07:18.484Z,1.58
2023-05-15T16:09:49.293Z,1.50
2023-05-15T16:12:21.206Z,1.55
2023-05-15T16:14:48.953Z,1.63
2023-05-15T16:17:16.392Z,1.75
2023-05-15T16:19:43.867Z,1.80
2023-05-15T16:22:11.464Z,1.90
2023-05-15T16:24:40.559Z,1.80
2023-05-15T16:27:08.110Z,2.10
2023-05-15T16:29:35.609Z,2.00
2023-05-15T16:32:03.061Z,1.83
2023-05-15T16:34:30.561Z,2.00
2023-05-15T16:36:57.960Z,1.90
2023-05-15T16:39:26.657Z,2.30
2023-05-15T16:41:54.242Z,2.40
2023-05-15T16:44:21.697Z,2.22
2023-05-15T16:46:49.388Z,2.13
2023-05-15T16:49:17.053Z,2.80
2023-05-15T16:51:45.263Z,2.38
2023-05-15T16:54:12.809Z,2.28
2023-05-15T16:56:40.335Z,2.60
2023-05-15T16:59:07.768Z,2.95
2023-05-15T17:01:35.310Z,3.00
2023-05-15T17:04:02.967Z,3.17
2023-05-15T17:06:30.760Z,3.15
2023-05-15T17:08:58.269Z,3.10
2023-05-15T17:11:25.954Z,2.50
2023-05-15T17:13:53.576Z,3.40
2023-05-15T17:16:21.268Z,2.40
2023-05-15T17:18:48.886Z,2.78
2023-05-15T17:21:16.474Z,3.00
2023-05-15T17:23:44.025Z,3.30
2023-05-15T17:26:11.495Z,3.50
2023-05-15T17:28:39.285Z,3.78
2023-05-15T17:31:12.856Z,3.70
2023-05-15T17:36:08.348Z,3.20
2023-05-15T17:38:35.907Z,3.22
2023-05-15T17:41:03.610Z,3.30
2023-05-15T17:43:31.015Z,3.40
2023-05-15T17:46:00.701Z,3.50
2023-05-15T17:48:28.255Z,3.25
2023-05-15T17:50:55.893Z,3.40
2023-05-15T17:53:24.670Z,3.30
2023-05-15T17:55:52.360Z,3.45
2023-05-15T17:58:21.390Z,3.47
2023-05-15T18:00:49.038Z,3.45
2023-05-15T18:03:18.088Z,3.47
2023-05-15T18:05:47.314Z,2.95
2023-05-15T18:08:15.158Z,3.28
2023-05-15T18:10:42.732Z,3.60
2023-05-15T18:13:10.159Z,3.88
2023-05-15T18:15:37.760Z,4.07
2023-05-15T18:18:06.414Z,3.90
2023-05-15T18:20:34.122Z,3.88
2023-05-15T18:23:01.594Z,3.85
2023-05-15T18:25:30.963Z,4.05
2023-05-15T18:27:58.539Z,4.43
2023-05-15T18:30:26.097Z,3.72
2023-05-15T18:32:53.554Z,3.80
2023-05-15T18:35:21.101Z,3.75
2023-05-15T18:37:48.572Z,3.30
2023-05-15T18:40:16.254Z,3.13
2023-05-15T18:42:43.757Z,3.00
2023-05-15T18:45:13.328Z,3.00
2023-05-15T18:47:40.858Z,3.25
2023-05-15T18:50:08.898Z,3.38
2023-05-15T18:52:36.416Z,3.10
2023-05-15T18:55:04.135Z,3.20
2023-05-15T18:57:31.815Z,3.58
2023-05-15T18:59:59.297Z,3.50
2023-05-15T19:02:27.054Z,3.60
2023-05-15T19:04:54.563Z,4.25
2023-05-15T19:07:22.200Z,3.67
2023-05-15T19:09:50.225Z,3.65
2023-05-15T19:12:18.092Z,3.25
2023-05-15T19:14:46.007Z,3.17
2023-05-15T19:17:13.520Z,3.45
2023-05-15T19:19:41.056Z,2.95
2023-05-15T19:22:08.665Z,2.85
2023-05-15T19:24:36.098Z,3.35
2023-05-15T19:27:03.652Z,2.97
2023-05-15T19:29:31.277Z,3.13
2023-05-15T19:31:58.700Z,3.10
2023-05-15T19:34:26.758Z,3.25
2023-05-15T19:36:54.585Z,3.15
2023-05-15T19:39:22.173Z,3.10
2023-05-15T19:41:49.750Z,2.92
2023-05-15T19:44:17.199Z,3.55
2023-05-15T19:46:46.964Z,3.13
2023-05-15T19:49:14.511Z,3.20
2023-05-15T19:51:42.104Z,4.00
2023-05-15T19:54:11.466Z,3.60
2023-05-15T19:56:39.076Z,4.40
2023-05-15T19:59:06.509Z,4.03
2023-05-15T20:01:33.977Z,3.97
2023-05-15T20:04:01.636Z,3.55
2023-05-15T20:06:29.254Z,3.90
2023-05-15T20:08:56.752Z,3.70
2023-05-15T20:11:24.340Z,3.85
2023-05-15T20:13:51.884Z,3.60
2023-05-15T20:16:19.468Z,3.90
2023-05-15T20:18:48.203Z,3.63
2023-05-15T20:21:16.145Z,3.92
2023-05-15T20:23:43.706Z,3.80
2023-05-15T20:26:11.179Z,3.88
2023-05-15T20:28:39.004Z,3.80
2023-05-15T20:31:06.561Z,3.50
2023-05-15T20:33:34.148Z,3.72
2023-05-15T20:36:02.568Z,3.67
2023-05-15T20:38:30.213Z,3.70
2023-05-15T20:40:57.893Z,3.78
2023-05-15T20:43:25.406Z,3.63
2023-05-15T20:45:53.025Z,3.67
2023-05-15T20:48:20.527Z,3.22
2023-05-15T20:50:48.020Z,3.53
2023-05-15T20:53:15.569Z,3.97
2023-05-15T20:55:43.158Z,3.42
2023-05-15T20:58:10.756Z,4.20
2023-05-15T21:00:38.234Z,4.30
2023-05-15T21:03:06.417Z,4.53
2023-05-15T21:05:33.992Z,4.32
2023-05-15T21:08:01.604Z,4.53
2023-05-15T21:10:29.461Z,3.85
2023-05-15T21:12:59.267Z,4.00
2023-05-15T21:15:27.016Z,3.35
2023-05-15T21:17:54.567Z,3.83
2023-05-15T21:20:22.078Z,3.75
2023-05-15T21:22:49.552Z,3.53
2023-05-15T21:25:19.337Z,3.45
2023-05-15T21:27:46.856Z,3.65
2023-05-15T21:30:14.748Z,3.75
2023-05-15T21:32:42.465Z,3.38
2023-05-15T21:35:10.437Z,3.60
2023-05-15T21:37:37.982Z,3.05
2023-05-15T21:40:06.914Z,3.30
2023-05-15T21:42:34.379Z,3.72
2023-05-15T21:45:02.882Z,3.75
2023-05-15T21:47:31.750Z,3.75
2023-05-15T21:49:59.341Z,3.72
2023-05-15T21:52:26.907Z,4.00
2023-05-15T21:54:54.444Z,3.55
2023-05-15T21:57:21.969Z,3.13
2023-05-15T21:59:49.632Z,3.45
2023-05-15T22:02:17.171Z,3.08
2023-05-15T22:04:44.640Z,3.13
2023-05-15T22:07:14.784Z,3.80
2023-05-15T22:09:45.238Z,3.28
2023-05-15T22:12:12.640Z,3.35
2023-05-15T22:14:57.817Z,3.13
2023-05-15T22:17:30.956Z,3.40
2023-05-15T22:20:08.315Z,3.80
2023-05-15T22:22:36.359Z,3.33
2023-05-15T22:25:04.974Z,3.47
2023-05-15T22:27:33.599Z,3.70
2023-05-15T22:30:01.248Z,4.13
2023-05-15T22:32:29.495Z,4.10
2023-05-15T22:34:57.074Z,3.88
2023-05-15T22:37:24.524Z,3.58
2023-05-15T22:39:53.114Z,3.45
2023-05-15T22:42:20.570Z,3.45
2023-05-15T22:44:48.136Z,3.05
2023-05-15T22:47:15.760Z,2.97
2023-05-15T22:49:43.385Z,3.40
2023-05-15T22:52:12.963Z,3.17
2023-05-15T22:54:41.784Z,3.15
2023-05-15T22:57:27.709Z,3.30
2023-05-15T22:59:55.448Z,3.47
2023-05-15T23:02:22.989Z,3.67
2023-05-15T23:04:50.647Z,3.63
2023-05-15T23:07:18.210Z,3.70
2023-05-15T23:09:45.830Z,3.75
2023-05-15T23:12:13.299Z,3.60
2023-05-15T23:14:40.833Z,3.90
2023-05-15T23:17:08.294Z,3.88
2023-05-15T23:19:36.161Z,3.78
2023-05-15T23:22:03.972Z,3.90
2023-05-15T23:24:31.556Z,4.07
2023-05-15T23:26:59.033Z,3.33
2023-05-15T23:29:26.738Z,4.18
2023-05-15T23:31:57.246Z,3.63
2023-05-15T23:34:24.793Z,3.65
2023-05-15T23:36:52.253Z,4.22
2023-05-15T23:39:19.660Z,3.95
2023-05-15T23:41:47.117Z,4.05
2023-05-15T23:44:14.615Z,3.92
2023-05-15T23:46:42.094Z,3.75
2023-05-15T23:49:09.718Z,3.85
2023-05-15T23:51:37.289Z,3.90
2023-05-15T23:54:04.741Z,3.38
2023-05-15T23:56:32.239Z,3.95
2023-05-15T23:58:59.734Z,3.75
